sensor_id;sensor_type;location;lat;lon;timestamp;temperature;humidity
4699;DHT22;33708;49.466;11.176;2023-04-24T00:00:55;11.00;99.90
4699;DHT22;33708;49.466;11.176;2023-04-24T00:03:26;11.00;99.90
4699;DHT22;33708;49.466;11.176;2023-04-24T00:05:56;11.00;99.90
4699;DHT22;33708;49.466;11.176;2023-04-24T00:08:21;11.10;99.90
4699;DHT22;33708;49.466;11.176;2023-04-24T00:10:49;11.20;99.90
4699;DHT22;33708;49.466;11.176;2023-04-24T00:13:14;11.10;99.90
4699;DHT22;33708;49.466;11.176;2023-04-24T00:15:40;11.20;99.90
4699;DHT22;33708;49.466;11.176;2023-04-24T00:18:05;11.10;99.90
4699;DHT22;33708;49.466;11.176;2023-04-24T00:20:31;11.10;99.90
4699;DHT22;33708;49.466;11.176;2023-04-24T00:23:03;11.10;99.90
4699;DHT22;33708;49.466;11.176;2023-04-24T00:25:28;11.10;99.90
4699;DHT22;33708;49.466;11.176;2023-04-24T00:27:54;11.10;99.90
4699;DHT22;33708;49.466;11.176;2023-04-24T00:30:20;11.20;99.90
4699;DHT22;33708;49.466;11.176;2023-04-24T00:32:45;11.30;99.90
4699;DHT22;33708;49.466;11.176;2023-04-24T00:35:11;11.20;99.90
4699;DHT22;33708;49.466;11.176;2023-04-24T00:37:37;11.20;99.90
4699;DHT22;33708;49.466;11.176;2023-04-24T00:40:03;11.10;99.90
4699;DHT22;33708;49.466;11.176;2023-04-24T00:42:28;11.20;99.90
4699;DHT22;33708;49.466;11.176;2023-04-24T00:44:54;11.20;99.90
4699;DHT22;33708;49.466;11.176;2023-04-24T00:47:21;11.20;99.90
4699;DHT22;33708;49.466;11.176;2023-04-24T00:49:47;11.20;99.90
4699;DHT22;33708;49.466;11.176;2023-04-24T00:52:13;11.20;99.90
4699;DHT22;33708;49.466;11.176;2023-04-24T00:54:45;11.30;99.90
4699;DHT22;33708;49.466;11.176;2023-04-24T00:57:13;11.20;99.90
4699;DHT22;33708;49.466;11.176;2023-04-24T00:59:41;11.20;99.90
4699;DHT22;33708;49.466;11.176;2023-04-24T01:02:08;11.30;99.90
4699;DHT22;33708;49.466;11.176;2023-04-24T01:04:35;11.10;99.90
4699;DHT22;33708;49.466;11.176;2023-04-24T01:07:00;11.20;99.90
4699;DHT22;33708;49.466;11.176;2023-04-24T01:09:26;11.20;99.90
4699;DHT22;33708;49.466;11.176;2023-04-24T01:11:52;11.20;99.90
4699;DHT22;33708;49.466;11.176;2023-04-24T01:14:18;11.20;99.90
4699;DHT22;33708;49.466;11.176;2023-04-24T01:16:44;11.30;99.90
4699;DHT22;33708;49.466;11.176;2023-04-24T01:19:10;11.20;99.90
4699;DHT22;33708;49.466;11.176;2023-04-24T01:21:37;11.20;99.90
4699;DHT22;33708;49.466;11.176;2023-04-24T01:24:04;11.20;99.90
4699;DHT22;33708;49.466;11.176;2023-04-24T01:26:30;11.20;99.90
4699;DHT22;33708;49.466;11.176;2023-04-24T01:28:56;11.10;99.90
4699;DHT22;33708;49.466;11.176;2023-04-24T01:31:22;10.90;99.90
4699;DHT22;33708;49.466;11.176;2023-04-24T01:33:49;10.80;99.90
4699;DHT22;33708;49.466;11.176;2023-04-24T01:36:16;10.80;99.90
4699;DHT22;33708;49.466;11.176;2023-04-24T01:38:42;10.90;99.90
4699;DHT22;33708;49.466;11.176;2023-04-24T01:41:08;11.10;99.90
4699;DHT22;33708;49.466;11.176;2023-04-24T01:43:33;11.20;99.90
4699;DHT22;33708;49.466;11.176;2023-04-24T01:45:59;11.30;99.90
4699;DHT22;33708;49.466;11.176;2023-04-24T01:48:25;11.40;99.90
4699;DHT22;33708;49.466;11.176;2023-04-24T01:50:51;11.40;99.90
4699;DHT22;33708;49.466;11.176;2023-04-24T01:53:16;11.40;99.90
4699;DHT22;33708;49.466;11.176;2023-04-24T01:55:42;11.40;99.90
4699;DHT22;33708;49.466;11.176;2023-04-24T01:58:08;11.50;99.90
4699;DHT22;33708;49.466;11.176;2023-04-24T02:00:33;11.50;99.90
4699;DHT22;33708;49.466;11.176;2023-04-24T02:02:59;11.50;99.90
4699;DHT22;33708;49.466;11.176;2023-04-24T02:05:27;11.60;99.90
4699;DHT22;33708;49.466;11.176;2023-04-24T02:07:52;11.50;99.90
4699;DHT22;33708;49.466;11.176;2023-04-24T02:10:18;11.50;99.90
4699;DHT22;33708;49.466;11.176;2023-04-24T02:12:44;11.40;99.90
4699;DHT22;33708;49.466;11.176;2023-04-24T02:15:10;11.30;99.90
4699;DHT22;33708;49.466;11.176;2023-04-24T02:17:35;11.20;99.90
4699;DHT22;33708;49.466;11.176;2023-04-24T02:20:01;11.10;99.90
4699;DHT22;33708;49.466;11.176;2023-04-24T02:22:27;11.10;99.90
4699;DHT22;33708;49.466;11.176;2023-04-24T02:24:53;11.00;99.90
4699;DHT22;33708;49.466;11.176;2023-04-24T02:27:18;10.80;99.90
4699;DHT22;33708;49.466;11.176;2023-04-24T02:29:44;10.80;99.90
4699;DHT22;33708;49.466;11.176;2023-04-24T02:32:10;10.80;99.90
4699;DHT22;33708;49.466;11.176;2023-04-24T02:34:37;10.70;99.90
4699;DHT22;33708;49.466;11.176;2023-04-24T02:37:03;10.60;99.90
4699;DHT22;33708;49.466;11.176;2023-04-24T02:39:29;10.60;99.90
4699;DHT22;33708;49.466;11.176;2023-04-24T02:41:55;10.70;99.90
4699;DHT22;33708;49.466;11.176;2023-04-24T02:44:20;10.60;99.90
4699;DHT22;33708;49.466;11.176;2023-04-24T02:46:47;10.50;99.90
4699;DHT22;33708;49.466;11.176;2023-04-24T02:49:12;10.60;99.90
4699;DHT22;33708;49.466;11.176;2023-04-24T02:51:38;10.60;99.90
4699;DHT22;33708;49.466;11.176;2023-04-24T02:54:07;10.60;99.90
4699;DHT22;33708;49.466;11.176;2023-04-24T02:56:33;10.70;99.90
4699;DHT22;33708;49.466;11.176;2023-04-24T02:58:58;10.70;99.90
4699;DHT22;33708;49.466;11.176;2023-04-24T03:01:24;10.80;99.90
4699;DHT22;33708;49.466;11.176;2023-04-24T03:03:50;10.80;99.90
4699;DHT22;33708;49.466;11.176;2023-04-24T03:06:16;10.90;99.90
4699;DHT22;33708;49.466;11.176;2023-04-24T03:08:41;11.00;99.90
4699;DHT22;33708;49.466;11.176;2023-04-24T03:11:07;11.00;99.90
4699;DHT22;33708;49.466;11.176;2023-04-24T03:13:32;11.00;99.90
4699;DHT22;33708;49.466;11.176;2023-04-24T03:15:58;11.00;99.90
4699;DHT22;33708;49.466;11.176;2023-04-24T03:18:23;11.10;99.90
4699;DHT22;33708;49.466;11.176;2023-04-24T03:20:49;11.10;99.90
4699;DHT22;33708;49.466;11.176;2023-04-24T03:23:15;11.20;99.90
4699;DHT22;33708;49.466;11.176;2023-04-24T03:25:41;11.20;99.90
4699;DHT22;33708;49.466;11.176;2023-04-24T03:28:08;11.20;99.90
4699;DHT22;33708;49.466;11.176;2023-04-24T03:30:33;11.20;99.90
4699;DHT22;33708;49.466;11.176;2023-04-24T03:32:59;11.20;99.90
4699;DHT22;33708;49.466;11.176;2023-04-24T03:35:25;11.10;99.90
4699;DHT22;33708;49.466;11.176;2023-04-24T03:37:50;11.10;99.90
4699;DHT22;33708;49.466;11.176;2023-04-24T03:40:16;11.20;99.90
4699;DHT22;33708;49.466;11.176;2023-04-24T03:42:41;11.20;99.90
4699;DHT22;33708;49.466;11.176;2023-04-24T03:45:07;11.20;99.90
4699;DHT22;33708;49.466;11.176;2023-04-24T03:47:33;11.10;99.90
4699;DHT22;33708;49.466;11.176;2023-04-24T03:49:59;10.80;99.90
4699;DHT22;33708;49.466;11.176;2023-04-24T03:52:24;10.80;99.90
4699;DHT22;33708;49.466;11.176;2023-04-24T03:54:50;10.70;99.90
4699;DHT22;33708;49.466;11.176;2023-04-24T03:57:16;10.70;99.90
4699;DHT22;33708;49.466;11.176;2023-04-24T03:59:41;10.50;99.90
4699;DHT22;33708;49.466;11.176;2023-04-24T04:02:07;10.40;99.90
4699;DHT22;33708;49.466;11.176;2023-04-24T04:04:32;10.50;99.90
4699;DHT22;33708;49.466;11.176;2023-04-24T04:06:58;10.50;99.90
4699;DHT22;33708;49.466;11.176;2023-04-24T04:09:26;10.50;99.90
4699;DHT22;33708;49.466;11.176;2023-04-24T04:11:52;10.50;99.90
4699;DHT22;33708;49.466;11.176;2023-04-24T04:14:18;10.60;99.90
4699;DHT22;33708;49.466;11.176;2023-04-24T04:16:43;10.60;99.90
4699;DHT22;33708;49.466;11.176;2023-04-24T04:19:09;10.60;99.90
4699;DHT22;33708;49.466;11.176;2023-04-24T04:21:34;10.60;99.90
4699;DHT22;33708;49.466;11.176;2023-04-24T04:24:00;10.60;99.90
4699;DHT22;33708;49.466;11.176;2023-04-24T04:26:26;10.60;99.90
4699;DHT22;33708;49.466;11.176;2023-04-24T04:28:52;10.50;99.90
4699;DHT22;33708;49.466;11.176;2023-04-24T04:31:19;10.60;99.90
4699;DHT22;33708;49.466;11.176;2023-04-24T04:33:45;10.60;99.90
4699;DHT22;33708;49.466;11.176;2023-04-24T04:36:11;10.70;99.90
4699;DHT22;33708;49.466;11.176;2023-04-24T04:38:37;10.60;99.90
4699;DHT22;33708;49.466;11.176;2023-04-24T04:41:03;10.70;99.90
4699;DHT22;33708;49.466;11.176;2023-04-24T04:43:29;10.70;99.90
4699;DHT22;33708;49.466;11.176;2023-04-24T04:45:57;10.60;99.90
4699;DHT22;33708;49.466;11.176;2023-04-24T04:48:22;10.60;99.90
4699;DHT22;33708;49.466;11.176;2023-04-24T04:50:48;10.60;99.90
4699;DHT22;33708;49.466;11.176;2023-04-24T04:53:14;10.60;99.90
4699;DHT22;33708;49.466;11.176;2023-04-24T04:55:39;10.60;99.90
4699;DHT22;33708;49.466;11.176;2023-04-24T04:58:05;10.70;99.90
4699;DHT22;33708;49.466;11.176;2023-04-24T05:00:31;10.80;99.90
4699;DHT22;33708;49.466;11.176;2023-04-24T05:03:01;10.80;99.90
4699;DHT22;33708;49.466;11.176;2023-04-24T05:05:27;10.80;99.90
4699;DHT22;33708;49.466;11.176;2023-04-24T05:07:53;11.00;99.90
4699;DHT22;33708;49.466;11.176;2023-04-24T05:10:19;10.90;99.90
4699;DHT22;33708;49.466;11.176;2023-04-24T05:12:44;11.10;99.90
4699;DHT22;33708;49.466;11.176;2023-04-24T05:15:10;11.30;99.90
4699;DHT22;33708;49.466;11.176;2023-04-24T05:17:36;11.60;99.90
4699;DHT22;33708;49.466;11.176;2023-04-24T05:20:02;11.60;99.90
4699;DHT22;33708;49.466;11.176;2023-04-24T05:22:31;11.60;99.90
4699;DHT22;33708;49.466;11.176;2023-04-24T05:24:56;11.60;99.90
4699;DHT22;33708;49.466;11.176;2023-04-24T05:27:22;11.70;99.90
4699;DHT22;33708;49.466;11.176;2023-04-24T05:29:48;11.90;99.90
4699;DHT22;33708;49.466;11.176;2023-04-24T05:32:13;12.00;99.90
4699;DHT22;33708;49.466;11.176;2023-04-24T05:34:39;12.10;99.90
4699;DHT22;33708;49.466;11.176;2023-04-24T05:37:05;12.10;99.90
4699;DHT22;33708;49.466;11.176;2023-04-24T05:39:34;12.20;99.90
4699;DHT22;33708;49.466;11.176;2023-04-24T05:42:01;12.30;99.90
4699;DHT22;33708;49.466;11.176;2023-04-24T05:44:31;12.30;99.90
4699;DHT22;33708;49.466;11.176;2023-04-24T05:46:56;12.20;99.90
4699;DHT22;33708;49.466;11.176;2023-04-24T05:49:22;12.40;99.90
4699;DHT22;33708;49.466;11.176;2023-04-24T05:51:48;12.40;99.90
4699;DHT22;33708;49.466;11.176;2023-04-24T05:54:14;12.40;99.90
4699;DHT22;33708;49.466;11.176;2023-04-24T05:56:40;12.60;99.90
4699;DHT22;33708;49.466;11.176;2023-04-24T05:59:06;12.70;99.90
4699;DHT22;33708;49.466;11.176;2023-04-24T06:01:32;12.90;99.90
4699;DHT22;33708;49.466;11.176;2023-04-24T06:03:58;12.80;99.90
4699;DHT22;33708;49.466;11.176;2023-04-24T06:06:24;12.80;99.90
4699;DHT22;33708;49.466;11.176;2023-04-24T06:08:50;12.70;99.90
4699;DHT22;33708;49.466;11.176;2023-04-24T06:11:15;12.70;99.90
4699;DHT22;33708;49.466;11.176;2023-04-24T06:13:41;12.60;99.90
4699;DHT22;33708;49.466;11.176;2023-04-24T06:16:07;12.70;99.90
4699;DHT22;33708;49.466;11.176;2023-04-24T06:18:32;12.70;99.90
4699;DHT22;33708;49.466;11.176;2023-04-24T06:20:58;12.90;99.90
4699;DHT22;33708;49.466;11.176;2023-04-24T06:23:23;12.90;99.90
4699;DHT22;33708;49.466;11.176;2023-04-24T06:25:49;12.90;99.90
4699;DHT22;33708;49.466;11.176;2023-04-24T06:28:15;13.00;99.90
4699;DHT22;33708;49.466;11.176;2023-04-24T06:30:41;12.90;99.90
4699;DHT22;33708;49.466;11.176;2023-04-24T06:33:06;12.90;99.90
4699;DHT22;33708;49.466;11.176;2023-04-24T06:35:32;12.80;99.90
4699;DHT22;33708;49.466;11.176;2023-04-24T06:37:58;12.90;99.90
4699;DHT22;33708;49.466;11.176;2023-04-24T06:40:23;12.90;99.90
4699;DHT22;33708;49.466;11.176;2023-04-24T06:42:49;12.90;99.90
4699;DHT22;33708;49.466;11.176;2023-04-24T06:45:15;12.90;99.90
4699;DHT22;33708;49.466;11.176;2023-04-24T06:47:42;12.70;99.90
4699;DHT22;33708;49.466;11.176;2023-04-24T06:50:08;12.60;99.90
4699;DHT22;33708;49.466;11.176;2023-04-24T06:52:33;12.20;99.90
4699;DHT22;33708;49.466;11.176;2023-04-24T06:55:03;12.30;99.90
4699;DHT22;33708;49.466;11.176;2023-04-24T06:57:29;12.20;99.90
4699;DHT22;33708;49.466;11.176;2023-04-24T06:59:55;12.30;99.90
4699;DHT22;33708;49.466;11.176;2023-04-24T07:02:20;12.70;99.90
4699;DHT22;33708;49.466;11.176;2023-04-24T07:04:46;13.10;99.90
4699;DHT22;33708;49.466;11.176;2023-04-24T07:07:13;13.50;99.90
4699;DHT22;33708;49.466;11.176;2023-04-24T07:09:39;13.90;99.90
4699;DHT22;33708;49.466;11.176;2023-04-24T07:12:08;14.20;99.90
4699;DHT22;33708;49.466;11.176;2023-04-24T07:14:33;14.30;99.90
4699;DHT22;33708;49.466;11.176;2023-04-24T07:17:00;14.40;92.00
4699;DHT22;33708;49.466;11.176;2023-04-24T07:19:26;14.50;86.50
4699;DHT22;33708;49.466;11.176;2023-04-24T07:21:52;14.30;71.40
4699;DHT22;33708;49.466;11.176;2023-04-24T07:24:18;13.90;59.30
4699;DHT22;33708;49.466;11.176;2023-04-24T07:26:44;14.20;51.00
4699;DHT22;33708;49.466;11.176;2023-04-24T07:29:12;14.70;47.60
4699;DHT22;33708;49.466;11.176;2023-04-24T07:31:37;14.70;42.60
4699;DHT22;33708;49.466;11.176;2023-04-24T07:34:03;14.40;33.90
4699;DHT22;33708;49.466;11.176;2023-04-24T07:36:29;14.50;23.30
4699;DHT22;33708;49.466;11.176;2023-04-24T07:38:55;15.10;23.60
4699;DHT22;33708;49.466;11.176;2023-04-24T07:41:22;15.20;16.80
4699;DHT22;33708;49.466;11.176;2023-04-24T07:43:48;15.00;10.90
4699;DHT22;33708;49.466;11.176;2023-04-24T07:46:13;14.60;1.00
4699;DHT22;33708;49.466;11.176;2023-04-24T07:48:39;14.30;1.00
4699;DHT22;33708;49.466;11.176;2023-04-24T07:51:04;14.30;1.00
4699;DHT22;33708;49.466;11.176;2023-04-24T07:53:30;14.40;1.00
4699;DHT22;33708;49.466;11.176;2023-04-24T07:55:56;14.70;1.00
4699;DHT22;33708;49.466;11.176;2023-04-24T07:58:21;14.50;1.00
4699;DHT22;33708;49.466;11.176;2023-04-24T08:00:47;14.40;1.00
4699;DHT22;33708;49.466;11.176;2023-04-24T08:03:14;14.70;1.00
4699;DHT22;33708;49.466;11.176;2023-04-24T08:05:40;14.80;1.00
4699;DHT22;33708;49.466;11.176;2023-04-24T08:08:07;15.00;1.00
4699;DHT22;33708;49.466;11.176;2023-04-24T08:10:32;15.10;1.00
4699;DHT22;33708;49.466;11.176;2023-04-24T08:12:58;15.30;1.00
4699;DHT22;33708;49.466;11.176;2023-04-24T08:15:23;15.50;1.00
4699;DHT22;33708;49.466;11.176;2023-04-24T08:17:50;15.80;1.00
4699;DHT22;33708;49.466;11.176;2023-04-24T08:20:15;16.00;1.00
4699;DHT22;33708;49.466;11.176;2023-04-24T08:22:42;15.90;1.00
4699;DHT22;33708;49.466;11.176;2023-04-24T08:25:08;15.60;1.00
4699;DHT22;33708;49.466;11.176;2023-04-24T08:27:34;15.40;1.00
4699;DHT22;33708;49.466;11.176;2023-04-24T08:30:02;15.80;1.00
4699;DHT22;33708;49.466;11.176;2023-04-24T08:32:28;16.10;1.00
4699;DHT22;33708;49.466;11.176;2023-04-24T08:34:55;16.00;1.00
4699;DHT22;33708;49.466;11.176;2023-04-24T08:37:22;16.50;1.00
4699;DHT22;33708;49.466;11.176;2023-04-24T08:39:48;16.30;1.00
4699;DHT22;33708;49.466;11.176;2023-04-24T08:42:14;16.00;1.00
4699;DHT22;33708;49.466;11.176;2023-04-24T08:44:41;16.00;1.00
4699;DHT22;33708;49.466;11.176;2023-04-24T08:47:07;16.50;1.00
4699;DHT22;33708;49.466;11.176;2023-04-24T08:49:33;16.40;1.00
4699;DHT22;33708;49.466;11.176;2023-04-24T08:52:01;16.50;1.00
4699;DHT22;33708;49.466;11.176;2023-04-24T08:54:28;18.70;1.00
4699;DHT22;33708;49.466;11.176;2023-04-24T08:56:58;21.00;1.00
4699;DHT22;33708;49.466;11.176;2023-04-24T08:59:26;19.90;1.00
4699;DHT22;33708;49.466;11.176;2023-04-24T09:01:52;18.50;1.00
4699;DHT22;33708;49.466;11.176;2023-04-24T09:04:20;18.60;1.00
4699;DHT22;33708;49.466;11.176;2023-04-24T09:06:48;18.60;1.00
4699;DHT22;33708;49.466;11.176;2023-04-24T09:09:16;18.40;1.00
4699;DHT22;33708;49.466;11.176;2023-04-24T09:11:42;18.70;1.00
4699;DHT22;33708;49.466;11.176;2023-04-24T09:14:09;19.10;1.00
4699;DHT22;33708;49.466;11.176;2023-04-24T09:16:35;18.20;1.00
4699;DHT22;33708;49.466;11.176;2023-04-24T09:19:01;18.60;1.00
4699;DHT22;33708;49.466;11.176;2023-04-24T09:21:32;18.90;1.00
4699;DHT22;33708;49.466;11.176;2023-04-24T09:24:00;18.60;1.00
4699;DHT22;33708;49.466;11.176;2023-04-24T09:26:28;19.50;1.00
4699;DHT22;33708;49.466;11.176;2023-04-24T09:28:54;20.80;1.00
4699;DHT22;33708;49.466;11.176;2023-04-24T09:31:20;21.40;1.00
4699;DHT22;33708;49.466;11.176;2023-04-24T09:34:01;22.20;1.00
4699;DHT22;33708;49.466;11.176;2023-04-24T09:36:36;21.80;97.90
4699;DHT22;33708;49.466;11.176;2023-04-24T09:39:13;21.40;99.90
4699;DHT22;33708;49.466;11.176;2023-04-24T09:44:20;19.10;99.90
4699;DHT22;33708;49.466;11.176;2023-04-24T09:46:54;17.80;99.90
4699;DHT22;33708;49.466;11.176;2023-04-24T09:49:27;17.30;97.60
4699;DHT22;33708;49.466;11.176;2023-04-24T09:52:03;16.60;77.30
4699;DHT22;33708;49.466;11.176;2023-04-24T09:54:29;17.00;70.10
4699;DHT22;33708;49.466;11.176;2023-04-24T09:56:56;17.30;69.40
4699;DHT22;33708;49.466;11.176;2023-04-24T09:59:22;17.70;63.40
4699;DHT22;33708;49.466;11.176;2023-04-24T10:01:48;18.00;70.60
4699;DHT22;33708;49.466;11.176;2023-04-24T10:04:24;17.40;62.70
4699;DHT22;33708;49.466;11.176;2023-04-24T10:06:52;16.70;46.30
4699;DHT22;33708;49.466;11.176;2023-04-24T10:09:19;16.70;40.80
4699;DHT22;33708;49.466;11.176;2023-04-24T10:11:46;16.50;33.50
4699;DHT22;33708;49.466;11.176;2023-04-24T10:14:14;16.90;35.70
4699;DHT22;33708;49.466;11.176;2023-04-24T10:16:40;17.00;34.60
4699;DHT22;33708;49.466;11.176;2023-04-24T10:19:06;17.20;33.60
4699;DHT22;33708;49.466;11.176;2023-04-24T10:21:33;16.50;31.60
4699;DHT22;33708;49.466;11.176;2023-04-24T10:23:59;16.60;28.20
4699;DHT22;33708;49.466;11.176;2023-04-24T10:26:29;17.00;26.70
4699;DHT22;33708;49.466;11.176;2023-04-24T10:28:57;16.70;20.20
4699;DHT22;33708;49.466;11.176;2023-04-24T10:31:23;17.40;25.40
4699;DHT22;33708;49.466;11.176;2023-04-24T10:33:50;17.90;26.00
4699;DHT22;33708;49.466;11.176;2023-04-24T10:36:18;17.40;20.20
4699;DHT22;33708;49.466;11.176;2023-04-24T10:38:46;17.60;33.60
4699;DHT22;33708;49.466;11.176;2023-04-24T10:41:13;17.50;20.80
4699;DHT22;33708;49.466;11.176;2023-04-24T10:43:45;17.50;15.60
4699;DHT22;33708;49.466;11.176;2023-04-24T10:46:19;17.70;16.20
4699;DHT22;33708;49.466;11.176;2023-04-24T10:48:52;17.80;13.70
4699;DHT22;33708;49.466;11.176;2023-04-24T10:51:24;17.90;15.10
4699;DHT22;33708;49.466;11.176;2023-04-24T10:59:52;16.70;18.20
4699;DHT22;33708;49.466;11.176;2023-04-24T11:02:39;16.40;16.70
4699;DHT22;33708;49.466;11.176;2023-04-24T11:05:06;14.50;4.50
4699;DHT22;33708;49.466;11.176;2023-04-24T11:10:53;14.30;1.10
4699;DHT22;33708;49.466;11.176;2023-04-24T11:13:23;14.40;1.00
4699;DHT22;33708;49.466;11.176;2023-04-24T11:16:14;14.30;1.00
4699;DHT22;33708;49.466;11.176;2023-04-24T11:18:42;14.80;1.00
4699;DHT22;33708;49.466;11.176;2023-04-24T11:21:17;15.00;1.00
4699;DHT22;33708;49.466;11.176;2023-04-24T11:23:44;15.20;1.00
4699;DHT22;33708;49.466;11.176;2023-04-24T11:26:18;15.80;1.00
4699;DHT22;33708;49.466;11.176;2023-04-24T11:28:49;15.70;1.00
4699;DHT22;33708;49.466;11.176;2023-04-24T11:31:37;16.30;1.00
4699;DHT22;33708;49.466;11.176;2023-04-24T11:34:11;16.60;1.00
4699;DHT22;33708;49.466;11.176;2023-04-24T11:36:38;16.60;1.00
4699;DHT22;33708;49.466;11.176;2023-04-24T11:39:04;16.50;1.00
4699;DHT22;33708;49.466;11.176;2023-04-24T11:41:30;16.40;1.00
4699;DHT22;33708;49.466;11.176;2023-04-24T11:43:56;17.00;1.00
4699;DHT22;33708;49.466;11.176;2023-04-24T11:46:22;17.20;1.00
4699;DHT22;33708;49.466;11.176;2023-04-24T11:48:48;17.70;1.00
4699;DHT22;33708;49.466;11.176;2023-04-24T11:51:14;17.80;1.00
4699;DHT22;33708;49.466;11.176;2023-04-24T11:53:39;17.50;1.00
4699;DHT22;33708;49.466;11.176;2023-04-24T11:56:05;16.90;1.00
4699;DHT22;33708;49.466;11.176;2023-04-24T11:58:40;16.40;1.00
4699;DHT22;33708;49.466;11.176;2023-04-24T12:01:06;16.10;1.00
4699;DHT22;33708;49.466;11.176;2023-04-24T12:03:31;15.60;1.00
4699;DHT22;33708;49.466;11.176;2023-04-24T12:06:07;15.30;1.00
4699;DHT22;33708;49.466;11.176;2023-04-24T12:08:34;14.80;1.00
4699;DHT22;33708;49.466;11.176;2023-04-24T12:11:01;14.40;1.00
4699;DHT22;33708;49.466;11.176;2023-04-24T12:13:27;14.60;1.00
4699;DHT22;33708;49.466;11.176;2023-04-24T12:15:53;15.10;1.00
4699;DHT22;33708;49.466;11.176;2023-04-24T12:18:21;15.60;1.00
4699;DHT22;33708;49.466;11.176;2023-04-24T12:20:47;15.50;1.00
4699;DHT22;33708;49.466;11.176;2023-04-24T12:23:12;16.00;1.00
4699;DHT22;33708;49.466;11.176;2023-04-24T12:25:38;15.90;1.00
4699;DHT22;33708;49.466;11.176;2023-04-24T12:30:41;16.80;1.00
4699;DHT22;33708;49.466;11.176;2023-04-24T12:33:09;17.20;1.00
4699;DHT22;33708;49.466;11.176;2023-04-24T12:35:35;16.90;1.00
4699;DHT22;33708;49.466;11.176;2023-04-24T12:38:12;17.20;1.00
4699;DHT22;33708;49.466;11.176;2023-04-24T12:40:38;16.80;1.00
4699;DHT22;33708;49.466;11.176;2023-04-24T12:43:34;16.10;1.00
4699;DHT22;33708;49.466;11.176;2023-04-24T12:45:59;16.30;1.00
4699;DHT22;33708;49.466;11.176;2023-04-24T12:48:26;16.70;1.00
4699;DHT22;33708;49.466;11.176;2023-04-24T12:50:52;16.80;1.00
4699;DHT22;33708;49.466;11.176;2023-04-24T12:53:18;16.70;1.00
4699;DHT22;33708;49.466;11.176;2023-04-24T12:55:44;16.40;1.00
4699;DHT22;33708;49.466;11.176;2023-04-24T12:58:10;15.70;1.00
4699;DHT22;33708;49.466;11.176;2023-04-24T13:00:36;16.00;1.00
4699;DHT22;33708;49.466;11.176;2023-04-24T13:03:02;16.20;1.00
4699;DHT22;33708;49.466;11.176;2023-04-24T13:05:28;15.50;1.00
4699;DHT22;33708;49.466;11.176;2023-04-24T13:07:54;16.10;1.00
4699;DHT22;33708;49.466;11.176;2023-04-24T13:10:19;15.90;1.00
4699;DHT22;33708;49.466;11.176;2023-04-24T13:12:45;16.10;1.00
4699;DHT22;33708;49.466;11.176;2023-04-24T13:15:11;16.40;1.00
4699;DHT22;33708;49.466;11.176;2023-04-24T13:17:37;16.40;1.00
4699;DHT22;33708;49.466;11.176;2023-04-24T13:20:03;16.60;1.00
4699;DHT22;33708;49.466;11.176;2023-04-24T13:22:29;16.70;1.00
4699;DHT22;33708;49.466;11.176;2023-04-24T13:24:55;17.50;1.00
4699;DHT22;33708;49.466;11.176;2023-04-24T13:27:21;17.50;1.00
4699;DHT22;33708;49.466;11.176;2023-04-24T13:29:47;17.20;1.00
4699;DHT22;33708;49.466;11.176;2023-04-24T13:32:12;17.10;1.00
4699;DHT22;33708;49.466;11.176;2023-04-24T13:34:38;15.80;1.00
4699;DHT22;33708;49.466;11.176;2023-04-24T13:37:04;15.20;1.00
4699;DHT22;33708;49.466;11.176;2023-04-24T13:39:30;14.70;1.00
4699;DHT22;33708;49.466;11.176;2023-04-24T13:41:58;14.50;1.00
4699;DHT22;33708;49.466;11.176;2023-04-24T13:44:24;14.30;1.00
4699;DHT22;33708;49.466;11.176;2023-04-24T13:46:52;14.60;1.00
4699;DHT22;33708;49.466;11.176;2023-04-24T13:49:20;14.70;1.00
4699;DHT22;33708;49.466;11.176;2023-04-24T13:51:47;14.80;1.00
4699;DHT22;33708;49.466;11.176;2023-04-24T13:54:12;15.10;1.00
4699;DHT22;33708;49.466;11.176;2023-04-24T13:56:41;15.00;1.00
4699;DHT22;33708;49.466;11.176;2023-04-24T13:59:07;15.10;1.00
4699;DHT22;33708;49.466;11.176;2023-04-24T14:01:34;14.70;1.00
4699;DHT22;33708;49.466;11.176;2023-04-24T14:03:59;14.60;1.00
4699;DHT22;33708;49.466;11.176;2023-04-24T14:06:25;14.60;1.00
4699;DHT22;33708;49.466;11.176;2023-04-24T14:08:51;14.30;1.00
4699;DHT22;33708;49.466;11.176;2023-04-24T14:11:18;14.80;1.00
4699;DHT22;33708;49.466;11.176;2023-04-24T14:13:44;14.90;1.00
4699;DHT22;33708;49.466;11.176;2023-04-24T14:16:10;15.30;1.00
4699;DHT22;33708;49.466;11.176;2023-04-24T14:18:36;15.10;1.00
4699;DHT22;33708;49.466;11.176;2023-04-24T14:21:03;15.20;1.00
4699;DHT22;33708;49.466;11.176;2023-04-24T14:23:28;15.80;1.00
4699;DHT22;33708;49.466;11.176;2023-04-24T14:25:54;15.30;1.00
4699;DHT22;33708;49.466;11.176;2023-04-24T14:28:20;15.60;1.00
4699;DHT22;33708;49.466;11.176;2023-04-24T14:30:46;15.30;1.00
4699;DHT22;33708;49.466;11.176;2023-04-24T14:33:12;15.40;1.00
4699;DHT22;33708;49.466;11.176;2023-04-24T14:35:38;15.70;1.00
4699;DHT22;33708;49.466;11.176;2023-04-24T14:38:05;16.10;1.00
4699;DHT22;33708;49.466;11.176;2023-04-24T14:40:31;15.90;1.00
4699;DHT22;33708;49.466;11.176;2023-04-24T14:42:57;15.80;1.00
4699;DHT22;33708;49.466;11.176;2023-04-24T14:45:24;16.00;1.00
4699;DHT22;33708;49.466;11.176;2023-04-24T14:47:49;15.90;1.00
4699;DHT22;33708;49.466;11.176;2023-04-24T14:50:15;16.00;1.00
4699;DHT22;33708;49.466;11.176;2023-04-24T14:52:41;15.50;1.00
4699;DHT22;33708;49.466;11.176;2023-04-24T14:55:07;15.50;1.00
4699;DHT22;33708;49.466;11.176;2023-04-24T14:57:33;15.40;1.00
4699;DHT22;33708;49.466;11.176;2023-04-24T14:59:59;15.90;1.00
4699;DHT22;33708;49.466;11.176;2023-04-24T15:02:24;15.90;1.00
4699;DHT22;33708;49.466;11.176;2023-04-24T15:04:50;16.10;1.00
4699;DHT22;33708;49.466;11.176;2023-04-24T15:07:16;16.10;1.00
4699;DHT22;33708;49.466;11.176;2023-04-24T15:09:41;15.80;1.00
4699;DHT22;33708;49.466;11.176;2023-04-24T15:12:08;15.60;1.00
4699;DHT22;33708;49.466;11.176;2023-04-24T15:14:33;15.50;1.00
4699;DHT22;33708;49.466;11.176;2023-04-24T15:16:59;15.30;1.00
4699;DHT22;33708;49.466;11.176;2023-04-24T15:19:25;14.80;1.00
4699;DHT22;33708;49.466;11.176;2023-04-24T15:21:50;14.60;1.00
4699;DHT22;33708;49.466;11.176;2023-04-24T15:24:16;14.70;1.00
4699;DHT22;33708;49.466;11.176;2023-04-24T15:26:41;14.90;1.00
4699;DHT22;33708;49.466;11.176;2023-04-24T15:29:07;14.80;1.00
4699;DHT22;33708;49.466;11.176;2023-04-24T15:31:32;14.70;1.00
4699;DHT22;33708;49.466;11.176;2023-04-24T15:33:58;14.70;1.00
4699;DHT22;33708;49.466;11.176;2023-04-24T15:36:24;14.40;1.00
4699;DHT22;33708;49.466;11.176;2023-04-24T15:38:49;14.70;1.00
4699;DHT22;33708;49.466;11.176;2023-04-24T15:41:15;15.40;1.00
4699;DHT22;33708;49.466;11.176;2023-04-24T15:43:40;15.40;1.00
4699;DHT22;33708;49.466;11.176;2023-04-24T15:46:07;15.00;1.00
4699;DHT22;33708;49.466;11.176;2023-04-24T15:48:33;14.70;1.00